地図

経路データ

SID SEASON NUMBER BASIN SUBBASIN NAME ISO_TIME NATURE LAT LON WMO_WIND WMO_PRES WMO_AGENCY TRACK_TYPE DIST2LAND LANDFALL IFLAG USA_AGENCY USA_ATCF_ID USA_LAT USA_LON USA_RECORD USA_STATUS USA_WIND USA_PRES USA_SSHS USA_R34_NE USA_R34_SE USA_R34_SW USA_R34_NW USA_R50_NE USA_R50_SE USA_R50_SW USA_R50_NW USA_R64_NE USA_R64_SE USA_R64_SW USA_R64_NW USA_POCI USA_ROCI USA_RMW USA_EYE TOKYO_LAT TOKYO_LON TOKYO_GRADE TOKYO_WIND TOKYO_PRES TOKYO_R50_DIR TOKYO_R50_LONG TOKYO_R50_SHORT TOKYO_R30_DIR TOKYO_R30_LONG TOKYO_R30_SHORT TOKYO_LAND CMA_LAT CMA_LON CMA_CAT CMA_WIND CMA_PRES HKO_LAT HKO_LON HKO_CAT HKO_WIND HKO_PRES NEWDELHI_LAT NEWDELHI_LON NEWDELHI_GRADE NEWDELHI_WIND NEWDELHI_PRES NEWDELHI_CI NEWDELHI_DP NEWDELHI_POCI REUNION_LAT REUNION_LON REUNION_TYPE REUNION_WIND REUNION_PRES REUNION_TNUM REUNION_CI REUNION_RMW REUNION_R34_NE REUNION_R34_SE REUNION_R34_SW REUNION_R34_NW REUNION_R50_NE REUNION_R50_SE REUNION_R50_SW REUNION_R50_NW REUNION_R64_NE REUNION_R64_SE REUNION_R64_SW REUNION_R64_NW BOM_LAT BOM_LON BOM_TYPE BOM_WIND BOM_PRES BOM_TNUM BOM_CI BOM_RMW BOM_R34_NE BOM_R34_SE BOM_R34_SW BOM_R34_NW BOM_R50_NE BOM_R50_SE BOM_R50_SW BOM_R50_NW BOM_R64_NE BOM_R64_SE BOM_R64_SW BOM_R64_NW BOM_ROCI BOM_POCI BOM_EYE BOM_POS_METHOD BOM_PRES_METHOD NADI_LAT NADI_LON NADI_CAT NADI_WIND NADI_PRES WELLINGTON_LAT WELLINGTON_LON WELLINGTON_WIND WELLINGTON_PRES DS824_LAT DS824_LON DS824_STAGE DS824_WIND DS824_PRES TD9636_LAT TD9636_LON TD9636_STAGE TD9636_WIND TD9636_PRES TD9635_LAT TD9635_LON TD9635_WIND TD9635_PRES TD9635_ROCI NEUMANN_LAT NEUMANN_LON NEUMANN_CLASS NEUMANN_WIND NEUMANN_PRES MLC_LAT MLC_LON MLC_CLASS MLC_WIND MLC_PRES USA_GUST BOM_GUST BOM_GUST_PER REUNION_GUST REUNION_GUST_PER USA_SEAHGT USA_SEARAD_NE USA_SEARAD_SE USA_SEARAD_SW USA_SEARAD_NW STORM_SPEED STORM_DIR
1894210N22135 1894 32 WP MM NOT_NAMED 1894-07-28 16:00:00 NR 21.7000 134.700 main 1112 1112 __________O___ -1 21.7000 134.700 7 1 0
1894210N22135 1894 32 WP MM NOT_NAMED 1894-07-28 18:00:00 NR 21.6765 134.702 main 1112 1112 __________P___ -1 21.6765 134.702 7 1 0
1894210N22135 1894 32 WP MM NOT_NAMED 1894-07-28 21:00:00 NR 21.6563 134.685 main 1112 1108 __________P___ -1 21.6563 134.685 7 1 269
1894210N22135 1894 32 WP MM NOT_NAMED 1894-07-29 00:00:00 NR 21.6749 134.618 main 1108 1094 __________P___ -1 21.6749 134.618 7 2 297
1894210N22135 1894 32 WP MM NOT_NAMED 1894-07-29 03:00:00 NR 21.7554 134.472 main 1094 1091 __________P___ -1 21.7554 134.472 7 4 302
1894210N22135 1894 32 WP MM NOT_NAMED 1894-07-29 04:00:00 NR 21.8000 134.400 main 1091 1074 __________O___ -1 21.8000 134.400 7 6 305
1894210N22135 1894 32 WP MM NOT_NAMED 1894-07-29 06:00:00 NR 21.9187 134.219 main 1074 1032 __________P___ -1 21.9187 134.219 7 7 306
1894210N22135 1894 32 WP MM NOT_NAMED 1894-07-29 09:00:00 NR 22.1594 133.871 main 1032 988 __________P___ -1 22.1594 133.871 7 9 308
1894210N22135 1894 32 WP MM NOT_NAMED 1894-07-29 12:00:00 NR 22.4558 133.466 main 988 943 __________P___ -1 22.4558 133.466 7 10 309
1894210N22135 1894 32 WP MM NOT_NAMED 1894-07-29 15:00:00 NR 22.7861 133.040 main 943 930 __________P___ -1 22.7861 133.040 7 10 310
1894210N22135 1894 32 WP MM NOT_NAMED 1894-07-29 16:00:00 NR 22.9000 132.900 main 930 901 __________O___ -1 22.9000 132.900 7 10 313
1894210N22135 1894 32 WP MM NOT_NAMED 1894-07-29 18:00:00 NR 23.1319 132.637 main 901 850 __________P___ -1 23.1319 132.637 7 10 315
1894210N22135 1894 32 WP MM NOT_NAMED 1894-07-29 21:00:00 NR 23.4992 132.243 main 850 801 __________P___ -1 23.4992 132.243 7 10 316
1894210N22135 1894 32 WP MM NOT_NAMED 1894-07-30 00:00:00 NR 23.8646 131.861 main 801 763 __________P___ -1 23.8646 131.861 7 10 316
1894210N22135 1894 32 WP MM NOT_NAMED 1894-07-30 03:00:00 NR 24.1998 131.508 main 763 751 __________P___ -1 24.1998 131.508 7 9 316
1894210N22135 1894 32 WP MM NOT_NAMED 1894-07-30 04:00:00 NR 24.3000 131.400 main 751 727 __________O___ -1 24.3000 131.400 7 8 314
1894210N22135 1894 32 WP MM NOT_NAMED 1894-07-30 06:00:00 NR 24.4672 131.207 main 727 703 __________P___ -1 24.4672 131.207 7 7 313
1894210N22135 1894 32 WP MM NOT_NAMED 1894-07-30 09:00:00 NR 24.6804 130.949 main 703 681 __________P___ -1 24.6804 130.949 7 6 312
1894210N22135 1894 32 WP MM NOT_NAMED 1894-07-30 12:00:00 NR 24.8653 130.713 main 681 669 __________P___ -1 24.8653 130.713 7 6 310
1894210N22135 1894 32 WP MM NOT_NAMED 1894-07-30 15:00:00 NR 25.0405 130.480 main 670 659 __________P___ -1 25.0405 130.480 7 6 310
1894210N22135 1894 32 WP MM NOT_NAMED 1894-07-30 16:00:00 NR 25.1000 130.400 main 659 648 __________O___ -1 25.1000 130.400 3 6 310
1894210N22135 1894 32 WP MM NOT_NAMED 1894-07-30 18:00:00 NR 25.2385 130.220 main 649 627 __________P___ -1 25.2385 130.220 3 6 310
1894210N22135 1894 32 WP MM NOT_NAMED 1894-07-30 21:00:00 NR 25.4465 129.943 main 630 609 __________P___ -1 25.4465 129.943 3 6 309
1894210N22135 1894 32 WP MM NOT_NAMED 1894-07-31 00:00:00 NR 25.6491 129.664 main 610 592 __________P___ -1 25.6491 129.664 3 6 308
1894210N22135 1894 32 WP MM NOT_NAMED 1894-07-31 03:00:00 NR 25.8400 129.390 main 594 583 __________P___ -1 25.8400 129.390 3 6 307
1894210N22135 1894 32 WP MM NOT_NAMED 1894-07-31 04:00:00 NR 25.9000 129.300 main 585 577 __________O___ -1 25.9000 129.300 4 6 308
1894210N22135 1894 32 WP MM NOT_NAMED 1894-07-31 06:00:00 NR 26.0164 129.138 main 579 563 __________P___ -1 26.0164 129.138 4 5 308
1894210N22135 1894 32 WP MM NOT_NAMED 1894-07-31 09:00:00 NR 26.1786 128.901 main 563 556 __________P___ -1 26.1786 128.901 4 5 306
1894210N22135 1894 32 WP MM NOT_NAMED 1894-07-31 12:00:00 NR 26.3261 128.659 main 559 549 __________P___ -1 26.3261 128.659 4 5 302
1894210N22135 1894 32 WP MM NOT_NAMED 1894-07-31 15:00:00 NR 26.4590 128.395 main 549 549 __________P___ -1 26.4590 128.395 4 5 298
1894210N22135 1894 32 WP MM NOT_NAMED 1894-07-31 16:00:00 NR 26.5000 128.300 main 553 548 __________O___ -1 26.5000 128.300 4 6 294
1894210N22135 1894 32 WP MM NOT_NAMED 1894-07-31 18:00:00 NR 26.5807 128.092 main 552 549 __________P___ -1 26.5807 128.092 4 6 291
1894210N22135 1894 32 WP MM NOT_NAMED 1894-07-31 21:00:00 NR 26.6892 127.755 main 553 556 __________P___ -1 26.6892 127.755 4 7 288
1894210N22135 1894 32 WP MM NOT_NAMED 1894-08-01 00:00:00 NR 26.7853 127.396 main 561 542 __________P___ -1 26.7853 127.396 4 7 286
1894210N22135 1894 32 WP MM NOT_NAMED 1894-08-01 03:00:00 NR 26.8724 127.025 main 542 533 __________P___ -1 26.8724 127.025 4 7 285
1894210N22135 1894 32 WP MM NOT_NAMED 1894-08-01 04:00:00 NR 26.9000 126.900 main 533 515 __________O___ -1 26.9000 126.900 4 7 285
1894210N22135 1894 32 WP MM NOT_NAMED 1894-08-01 06:00:00 NR 26.9609 126.653 main 519 483 __________P___ -1 26.9609 126.653 4 7 285
1894210N22135 1894 32 WP MM NOT_NAMED 1894-08-01 09:00:00 NR 27.0460 126.276 main 483 443 __________P___ -1 27.0460 126.276 4 7 283
1894210N22135 1894 32 WP MM NOT_NAMED 1894-08-01 12:00:00 NR 27.1211 125.898 main 443 402 __________P___ -1 27.1211 125.898 4 7 282
1894210N22135 1894 32 WP MM NOT_NAMED 1894-08-01 15:00:00 NR 27.1829 125.523 main 402 393 __________P___ -1 27.1829 125.523 4 7 280
1894210N22135 1894 32 WP MM NOT_NAMED 1894-08-01 16:00:00 NR 27.2000 125.400 main 393 374 __________O___ -1 27.2000 125.400 4 6 279
1894210N22135 1894 32 WP MM NOT_NAMED 1894-08-01 18:00:00 NR 27.2304 125.163 main 374 333 __________P___ -1 27.2304 125.163 4 6 277
1894210N22135 1894 32 WP MM NOT_NAMED 1894-08-01 21:00:00 NR 27.2637 124.815 main 333 306 __________P___ -1 27.2637 124.815 4 6 275
1894210N22135 1894 32 WP MM NOT_NAMED 1894-08-02 00:00:00 NR 27.2849 124.469 main 306 269 __________P___ -1 27.2849 124.469 4 6 273
1894210N22135 1894 32 WP MM NOT_NAMED 1894-08-02 03:00:00 NR 27.2973 124.119 main 269 260 __________P___ -1 27.2973 124.119 4 6 272
1894210N22135 1894 32 WP MM NOT_NAMED 1894-08-02 04:00:00 NR 27.3000 124.000 main 260 243 __________O___ -1 27.3000 124.000 4 6 272
1894210N22135 1894 32 WP MM NOT_NAMED 1894-08-02 06:00:00 NR 27.3080 123.764 main 243 209 __________P___ -1 27.3080 123.764 4 6 272
1894210N22135 1894 32 WP MM NOT_NAMED 1894-08-02 09:00:00 NR 27.3139 123.403 main 209 177 __________P___ -1 27.3139 123.403 4 7 270
1894210N22135 1894 32 WP MM NOT_NAMED 1894-08-02 12:00:00 NR 27.3127 123.029 main 177 148 __________P___ -1 27.3127 123.029 4 7 269
1894210N22135 1894 32 WP MM NOT_NAMED 1894-08-02 15:00:00 NR 27.3044 122.636 main 148 142 __________P___ -1 27.3044 122.636 4 7 268
1894210N22135 1894 32 WP MM NOT_NAMED 1894-08-02 16:00:00 NR 27.3000 122.500 main 142 125 __________O___ -1 27.3000 122.500 4 7 268
1894210N22135 1894 32 WP MM NOT_NAMED 1894-08-02 18:00:00 NR 27.2939 122.230 main 125 101 __________P___ -1 27.2939 122.230 4 7 268
1894210N22135 1894 32 WP MM NOT_NAMED 1894-08-02 21:00:00 NR 27.2786 121.807 main 101 72 __________P___ -1 27.2786 121.807 4 8 267
1894210N22135 1894 32 WP MM NOT_NAMED 1894-08-03 00:00:00 NR 27.2536 121.356 main 72 37 __________P___ -1 27.2536 121.356 4 8 266
1894210N22135 1894 32 WP MM NOT_NAMED 1894-08-03 03:00:00 NR 27.2159 120.871 main 37 19 __________P___ -1 27.2159 120.871 4 9 265
1894210N22135 1894 32 WP MM NOT_NAMED 1894-08-03 04:00:00 NR 27.2000 120.700 main 19 0 __________O___ -1 27.2000 120.700 4 10 263
1894210N22135 1894 32 WP MM NOT_NAMED 1894-08-03 06:00:00 NR 27.1590 120.337 main 0 0 __________P___ -1 27.1590 120.337 4 10 262
1894210N22135 1894 32 WP MM NOT_NAMED 1894-08-03 09:00:00 NR 27.0847 119.761 main 0 0 __________P___ -1 27.0847 119.761 4 11 261
1894210N22135 1894 32 WP MM NOT_NAMED 1894-08-03 12:00:00 NR 27.0033 119.170 main 0 0 __________P___ -1 27.0033 119.170 4 11 261
1894210N22135 1894 32 WP MM NOT_NAMED 1894-08-03 15:00:00 NR 26.9242 118.588 main 0 0 __________P___ -1 26.9242 118.588 4 10 261
1894210N22135 1894 32 WP MM NOT_NAMED 1894-08-03 16:00:00 NR 26.9000 118.400 main 0 0 __________O___ -1 26.9000 118.400 7 10 262
1894210N22135 1894 32 WP MM NOT_NAMED 1894-08-03 18:00:00 NR 26.8565 118.038 main 0 0 __________P___ -1 26.8565 118.038 7 9 263
1894210N22135 1894 32 WP MM NOT_NAMED 1894-08-03 21:00:00 NR 26.8016 117.523 main 0 0 __________P___ -1 26.8016 117.523 7 9 264
1894210N22135 1894 32 WP MM NOT_NAMED 1894-08-04 00:00:00 NR 26.7555 117.033 main 0 0 __________P___ -1 26.7555 117.033 7 9 264
1894210N22135 1894 32 WP MM NOT_NAMED 1894-08-04 03:00:00 NR 26.7137 116.557 main 0 0 __________P___ -1 26.7137 116.557 7 9 264
1894210N22135 1894 32 WP MM NOT_NAMED 1894-08-04 04:00:00 NR 26.7000 116.400 main 0 __________O___ -1 26.7000 116.400 7 8 264

デジタル台風データ・検索

IBTrACS Databaseについて

本データベースは、米国NOAAが公開する1842年以降の世界の熱帯低気圧のベストトラックデータアーカイブInternational Best Track Archive for Climate Stewardship (IBTrACS)を、ウェブで閲覧しやすい形式に変換したものです。

最終更新日:2021-10-21